sensor_id;sensor_type;location;lat;lon;timestamp;P1;durP1;ratioP1;P2;durP2;ratioP2
12852;SDS011;6495;51.808;7.478;2023-12-04T00:02:01;8.27;;;4.40;;
12852;SDS011;6495;51.808;7.478;2023-12-04T00:04:32;7.37;;;3.73;;
12852;SDS011;6495;51.808;7.478;2023-12-04T00:07:00;8.67;;;4.30;;
12852;SDS011;6495;51.808;7.478;2023-12-04T00:09:28;9.10;;;4.73;;
12852;SDS011;6495;51.808;7.478;2023-12-04T00:11:56;7.70;;;4.10;;
12852;SDS011;6495;51.808;7.478;2023-12-04T00:14:25;8.17;;;4.77;;
12852;SDS011;6495;51.808;7.478;2023-12-04T00:16:53;8.37;;;4.10;;
12852;SDS011;6495;51.808;7.478;2023-12-04T00:19:21;7.93;;;4.03;;
12852;SDS011;6495;51.808;7.478;2023-12-04T00:21:52;8.83;;;4.47;;
12852;SDS011;6495;51.808;7.478;2023-12-04T00:24:20;9.03;;;4.67;;
12852;SDS011;6495;51.808;7.478;2023-12-04T00:26:48;9.77;;;4.73;;
12852;SDS011;6495;51.808;7.478;2023-12-04T00:29:16;7.17;;;3.97;;
12852;SDS011;6495;51.808;7.478;2023-12-04T00:31:45;9.27;;;4.13;;
12852;SDS011;6495;51.808;7.478;2023-12-04T00:34:13;9.10;;;4.23;;
12852;SDS011;6495;51.808;7.478;2023-12-04T00:36:41;7.70;;;4.27;;
12852;SDS011;6495;51.808;7.478;2023-12-04T00:39:11;9.67;;;3.83;;
12852;SDS011;6495;51.808;7.478;2023-12-04T00:41:39;7.57;;;4.27;;
12852;SDS011;6495;51.808;7.478;2023-12-04T00:44:08;7.83;;;4.20;;
12852;SDS011;6495;51.808;7.478;2023-12-04T00:46:36;6.30;;;3.40;;
12852;SDS011;6495;51.808;7.478;2023-12-04T00:49:04;10.70;;;4.60;;
12852;SDS011;6495;51.808;7.478;2023-12-04T00:51:36;7.67;;;3.50;;
12852;SDS011;6495;51.808;7.478;2023-12-04T00:54:06;11.67;;;5.30;;
12852;SDS011;6495;51.808;7.478;2023-12-04T00:56:35;6.83;;;3.67;;
12852;SDS011;6495;51.808;7.478;2023-12-04T00:59:07;7.47;;;4.37;;
12852;SDS011;6495;51.808;7.478;2023-12-04T01:01:36;9.23;;;4.33;;
12852;SDS011;6495;51.808;7.478;2023-12-04T01:04:05;6.03;;;3.60;;
12852;SDS011;6495;51.808;7.478;2023-12-04T01:06:33;5.43;;;3.93;;
12852;SDS011;6495;51.808;7.478;2023-12-04T01:09:02;6.53;;;3.37;;
12852;SDS011;6495;51.808;7.478;2023-12-04T01:11:31;8.53;;;3.93;;
12852;SDS011;6495;51.808;7.478;2023-12-04T01:14:00;6.37;;;3.73;;
12852;SDS011;6495;51.808;7.478;2023-12-04T01:16:29;6.93;;;4.43;;
12852;SDS011;6495;51.808;7.478;2023-12-04T01:18:58;6.90;;;4.30;;
12852;SDS011;6495;51.808;7.478;2023-12-04T01:21:27;6.70;;;3.63;;
12852;SDS011;6495;51.808;7.478;2023-12-04T01:23:55;9.77;;;4.40;;
12852;SDS011;6495;51.808;7.478;2023-12-04T01:26:23;7.50;;;3.37;;
12852;SDS011;6495;51.808;7.478;2023-12-04T01:28:52;7.10;;;4.00;;
12852;SDS011;6495;51.808;7.478;2023-12-04T01:31:21;6.80;;;3.53;;
12852;SDS011;6495;51.808;7.478;2023-12-04T01:33:50;8.53;;;4.30;;
12852;SDS011;6495;51.808;7.478;2023-12-04T01:36:18;10.93;;;4.90;;
12852;SDS011;6495;51.808;7.478;2023-12-04T01:38:47;9.17;;;4.63;;
12852;SDS011;6495;51.808;7.478;2023-12-04T01:41:15;6.80;;;3.73;;
12852;SDS011;6495;51.808;7.478;2023-12-04T01:43:44;8.90;;;4.13;;
12852;SDS011;6495;51.808;7.478;2023-12-04T01:46:13;11.27;;;5.27;;
12852;SDS011;6495;51.808;7.478;2023-12-04T01:48:46;6.40;;;3.53;;
12852;SDS011;6495;51.808;7.478;2023-12-04T01:51:14;11.03;;;4.73;;
12852;SDS011;6495;51.808;7.478;2023-12-04T01:53:46;8.13;;;4.83;;
12852;SDS011;6495;51.808;7.478;2023-12-04T01:56:15;9.50;;;4.90;;
12852;SDS011;6495;51.808;7.478;2023-12-04T01:58:45;8.17;;;4.33;;
12852;SDS011;6495;51.808;7.478;2023-12-04T02:01:14;9.60;;;3.77;;
12852;SDS011;6495;51.808;7.478;2023-12-04T02:03:42;10.07;;;4.07;;
12852;SDS011;6495;51.808;7.478;2023-12-04T02:06:12;7.93;;;4.43;;
12852;SDS011;6495;51.808;7.478;2023-12-04T02:08:42;8.67;;;3.60;;
12852;SDS011;6495;51.808;7.478;2023-12-04T02:11:11;9.00;;;4.27;;
12852;SDS011;6495;51.808;7.478;2023-12-04T02:13:40;9.43;;;4.53;;
12852;SDS011;6495;51.808;7.478;2023-12-04T02:16:09;10.83;;;4.50;;
12852;SDS011;6495;51.808;7.478;2023-12-04T02:18:41;7.50;;;4.07;;
12852;SDS011;6495;51.808;7.478;2023-12-04T02:21:10;6.73;;;3.93;;
12852;SDS011;6495;51.808;7.478;2023-12-04T02:23:40;9.27;;;4.77;;
12852;SDS011;6495;51.808;7.478;2023-12-04T02:26:11;6.77;;;4.10;;
12852;SDS011;6495;51.808;7.478;2023-12-04T02:28:46;9.00;;;4.93;;
12852;SDS011;6495;51.808;7.478;2023-12-04T02:31:21;5.40;;;4.03;;
12852;SDS011;6495;51.808;7.478;2023-12-04T02:33:52;8.03;;;4.13;;
12852;SDS011;6495;51.808;7.478;2023-12-04T02:36:24;7.93;;;4.27;;
12852;SDS011;6495;51.808;7.478;2023-12-04T02:38:55;10.80;;;4.80;;
12852;SDS011;6495;51.808;7.478;2023-12-04T02:41:26;7.50;;;4.00;;
12852;SDS011;6495;51.808;7.478;2023-12-04T02:43:55;7.77;;;4.13;;
12852;SDS011;6495;51.808;7.478;2023-12-04T02:46:23;11.57;;;4.53;;
12852;SDS011;6495;51.808;7.478;2023-12-04T02:48:52;7.50;;;3.87;;
12852;SDS011;6495;51.808;7.478;2023-12-04T02:51:20;7.60;;;3.97;;
12852;SDS011;6495;51.808;7.478;2023-12-04T02:53:48;6.30;;;4.07;;
12852;SDS011;6495;51.808;7.478;2023-12-04T02:56:16;7.90;;;4.37;;
12852;SDS011;6495;51.808;7.478;2023-12-04T02:58:45;6.63;;;3.80;;
12852;SDS011;6495;51.808;7.478;2023-12-04T03:01:13;7.10;;;4.07;;
12852;SDS011;6495;51.808;7.478;2023-12-04T03:03:42;8.13;;;4.87;;
12852;SDS011;6495;51.808;7.478;2023-12-04T03:06:10;7.70;;;4.47;;
12852;SDS011;6495;51.808;7.478;2023-12-04T03:08:38;9.20;;;4.33;;
12852;SDS011;6495;51.808;7.478;2023-12-04T03:11:06;9.87;;;4.70;;
12852;SDS011;6495;51.808;7.478;2023-12-04T03:13:35;10.03;;;4.07;;
12852;SDS011;6495;51.808;7.478;2023-12-04T03:16:05;9.80;;;4.27;;
12852;SDS011;6495;51.808;7.478;2023-12-04T03:18:41;8.83;;;3.70;;
12852;SDS011;6495;51.808;7.478;2023-12-04T03:21:10;10.30;;;4.27;;
12852;SDS011;6495;51.808;7.478;2023-12-04T03:23:38;9.23;;;4.23;;
12852;SDS011;6495;51.808;7.478;2023-12-04T03:26:07;6.03;;;3.70;;
12852;SDS011;6495;51.808;7.478;2023-12-04T03:28:36;7.90;;;4.60;;
12852;SDS011;6495;51.808;7.478;2023-12-04T03:31:08;9.10;;;4.53;;
12852;SDS011;6495;51.808;7.478;2023-12-04T03:33:37;8.43;;;4.10;;
12852;SDS011;6495;51.808;7.478;2023-12-04T03:36:05;9.50;;;4.07;;
12852;SDS011;6495;51.808;7.478;2023-12-04T03:38:35;5.87;;;4.07;;
12852;SDS011;6495;51.808;7.478;2023-12-04T03:41:03;8.30;;;4.00;;
12852;SDS011;6495;51.808;7.478;2023-12-04T03:43:33;10.13;;;4.77;;
12852;SDS011;6495;51.808;7.478;2023-12-04T03:46:02;7.93;;;3.60;;
12852;SDS011;6495;51.808;7.478;2023-12-04T03:48:32;7.47;;;3.77;;
12852;SDS011;6495;51.808;7.478;2023-12-04T03:51:01;6.47;;;4.47;;
12852;SDS011;6495;51.808;7.478;2023-12-04T03:53:29;7.73;;;3.97;;
12852;SDS011;6495;51.808;7.478;2023-12-04T03:55:58;7.67;;;4.40;;
12852;SDS011;6495;51.808;7.478;2023-12-04T03:58:26;8.20;;;4.50;;
12852;SDS011;6495;51.808;7.478;2023-12-04T04:00:54;7.23;;;3.90;;
12852;SDS011;6495;51.808;7.478;2023-12-04T04:03:23;7.80;;;4.77;;
12852;SDS011;6495;51.808;7.478;2023-12-04T04:05:52;8.13;;;4.50;;
12852;SDS011;6495;51.808;7.478;2023-12-04T04:08:21;10.37;;;5.43;;
12852;SDS011;6495;51.808;7.478;2023-12-04T04:10:49;9.37;;;4.40;;
12852;SDS011;6495;51.808;7.478;2023-12-04T04:13:17;6.37;;;3.57;;
12852;SDS011;6495;51.808;7.478;2023-12-04T04:15:46;8.33;;;4.33;;
12852;SDS011;6495;51.808;7.478;2023-12-04T04:18:14;8.47;;;3.93;;
12852;SDS011;6495;51.808;7.478;2023-12-04T04:20:42;8.03;;;4.20;;
12852;SDS011;6495;51.808;7.478;2023-12-04T04:23:12;6.47;;;3.60;;
12852;SDS011;6495;51.808;7.478;2023-12-04T04:25:40;8.63;;;3.87;;
12852;SDS011;6495;51.808;7.478;2023-12-04T04:28:09;7.83;;;4.30;;
12852;SDS011;6495;51.808;7.478;2023-12-04T04:30:37;8.53;;;4.03;;
12852;SDS011;6495;51.808;7.478;2023-12-04T04:33:06;8.10;;;3.93;;
12852;SDS011;6495;51.808;7.478;2023-12-04T04:35:35;9.20;;;4.37;;
12852;SDS011;6495;51.808;7.478;2023-12-04T04:38:03;6.13;;;3.73;;
12852;SDS011;6495;51.808;7.478;2023-12-04T04:40:33;4.57;;;3.43;;
12852;SDS011;6495;51.808;7.478;2023-12-04T04:43:01;6.53;;;4.27;;
12852;SDS011;6495;51.808;7.478;2023-12-04T04:45:30;8.90;;;3.90;;
12852;SDS011;6495;51.808;7.478;2023-12-04T04:47:58;6.80;;;3.57;;
12852;SDS011;6495;51.808;7.478;2023-12-04T04:50:26;7.57;;;4.00;;
12852;SDS011;6495;51.808;7.478;2023-12-04T04:52:54;7.17;;;3.80;;
12852;SDS011;6495;51.808;7.478;2023-12-04T04:55:23;6.63;;;3.70;;
12852;SDS011;6495;51.808;7.478;2023-12-04T04:58:12;7.43;;;3.77;;
12852;SDS011;6495;51.808;7.478;2023-12-04T05:00:41;8.33;;;3.63;;
12852;SDS011;6495;51.808;7.478;2023-12-04T05:03:09;7.07;;;3.53;;
12852;SDS011;6495;51.808;7.478;2023-12-04T05:05:37;5.07;;;3.53;;
12852;SDS011;6495;51.808;7.478;2023-12-04T05:08:06;6.73;;;3.60;;
12852;SDS011;6495;51.808;7.478;2023-12-04T05:10:34;7.63;;;3.70;;
12852;SDS011;6495;51.808;7.478;2023-12-04T05:13:02;5.70;;;3.80;;
12852;SDS011;6495;51.808;7.478;2023-12-04T05:15:32;5.47;;;3.33;;
12852;SDS011;6495;51.808;7.478;2023-12-04T05:18:00;8.50;;;4.13;;
12852;SDS011;6495;51.808;7.478;2023-12-04T05:20:29;7.27;;;3.47;;
12852;SDS011;6495;51.808;7.478;2023-12-04T05:22:57;6.60;;;4.03;;
12852;SDS011;6495;51.808;7.478;2023-12-04T05:25:25;7.87;;;3.57;;
12852;SDS011;6495;51.808;7.478;2023-12-04T05:28:02;5.43;;;3.20;;
12852;SDS011;6495;51.808;7.478;2023-12-04T05:30:33;10.07;;;3.73;;
12852;SDS011;6495;51.808;7.478;2023-12-04T05:33:01;8.37;;;3.60;;
12852;SDS011;6495;51.808;7.478;2023-12-04T05:35:29;6.53;;;3.40;;
12852;SDS011;6495;51.808;7.478;2023-12-04T05:38:00;6.30;;;3.40;;
12852;SDS011;6495;51.808;7.478;2023-12-04T05:40:28;6.27;;;2.93;;
12852;SDS011;6495;51.808;7.478;2023-12-04T05:42:57;5.30;;;3.57;;
12852;SDS011;6495;51.808;7.478;2023-12-04T05:45:25;4.70;;;2.80;;
12852;SDS011;6495;51.808;7.478;2023-12-04T05:47:54;6.47;;;3.37;;
12852;SDS011;6495;51.808;7.478;2023-12-04T05:50:23;6.20;;;3.03;;
12852;SDS011;6495;51.808;7.478;2023-12-04T05:52:51;5.83;;;3.73;;
12852;SDS011;6495;51.808;7.478;2023-12-04T05:55:19;4.90;;;3.43;;
12852;SDS011;6495;51.808;7.478;2023-12-04T05:57:48;5.97;;;3.37;;
12852;SDS011;6495;51.808;7.478;2023-12-04T06:00:16;7.43;;;3.30;;
12852;SDS011;6495;51.808;7.478;2023-12-04T06:02:45;5.80;;;3.60;;
12852;SDS011;6495;51.808;7.478;2023-12-04T06:05:15;5.37;;;3.60;;
12852;SDS011;6495;51.808;7.478;2023-12-04T06:07:43;5.23;;;2.90;;
12852;SDS011;6495;51.808;7.478;2023-12-04T06:10:11;7.77;;;3.60;;
12852;SDS011;6495;51.808;7.478;2023-12-04T06:12:40;4.93;;;2.93;;
12852;SDS011;6495;51.808;7.478;2023-12-04T06:15:08;4.17;;;2.77;;
12852;SDS011;6495;51.808;7.478;2023-12-04T06:17:37;6.40;;;3.07;;
12852;SDS011;6495;51.808;7.478;2023-12-04T06:20:06;3.07;;;2.53;;
12852;SDS011;6495;51.808;7.478;2023-12-04T06:22:39;5.27;;;2.50;;
12852;SDS011;6495;51.808;7.478;2023-12-04T06:25:08;6.17;;;3.30;;
12852;SDS011;6495;51.808;7.478;2023-12-04T06:27:38;4.47;;;2.70;;
12852;SDS011;6495;51.808;7.478;2023-12-04T06:30:07;5.13;;;2.37;;
12852;SDS011;6495;51.808;7.478;2023-12-04T06:32:37;6.13;;;2.40;;
12852;SDS011;6495;51.808;7.478;2023-12-04T06:35:06;4.97;;;2.90;;
12852;SDS011;6495;51.808;7.478;2023-12-04T06:37:36;7.70;;;3.50;;
12852;SDS011;6495;51.808;7.478;2023-12-04T06:40:08;4.80;;;3.03;;
12852;SDS011;6495;51.808;7.478;2023-12-04T06:42:38;5.23;;;2.63;;
12852;SDS011;6495;51.808;7.478;2023-12-04T06:45:07;5.37;;;2.77;;
12852;SDS011;6495;51.808;7.478;2023-12-04T06:47:37;5.00;;;3.10;;
12852;SDS011;6495;51.808;7.478;2023-12-04T06:50:10;6.93;;;2.90;;
12852;SDS011;6495;51.808;7.478;2023-12-04T06:52:40;6.43;;;2.83;;
12852;SDS011;6495;51.808;7.478;2023-12-04T06:55:08;3.90;;;2.90;;
12852;SDS011;6495;51.808;7.478;2023-12-04T06:57:36;4.33;;;2.47;;
12852;SDS011;6495;51.808;7.478;2023-12-04T07:00:05;5.17;;;2.80;;
12852;SDS011;6495;51.808;7.478;2023-12-04T07:02:48;5.63;;;2.80;;
12852;SDS011;6495;51.808;7.478;2023-12-04T07:05:17;5.03;;;2.37;;
12852;SDS011;6495;51.808;7.478;2023-12-04T07:07:49;4.93;;;2.70;;
12852;SDS011;6495;51.808;7.478;2023-12-04T07:10:17;4.03;;;2.53;;
12852;SDS011;6495;51.808;7.478;2023-12-04T07:12:45;5.07;;;3.00;;
12852;SDS011;6495;51.808;7.478;2023-12-04T07:15:14;3.97;;;2.53;;
12852;SDS011;6495;51.808;7.478;2023-12-04T07:17:43;3.67;;;2.57;;
12852;SDS011;6495;51.808;7.478;2023-12-04T07:20:11;6.63;;;3.10;;
12852;SDS011;6495;51.808;7.478;2023-12-04T07:22:40;3.80;;;2.30;;
12852;SDS011;6495;51.808;7.478;2023-12-04T07:25:10;4.77;;;2.87;;
12852;SDS011;6495;51.808;7.478;2023-12-04T07:27:38;3.57;;;2.60;;
12852;SDS011;6495;51.808;7.478;2023-12-04T07:30:07;3.70;;;2.63;;
12852;SDS011;6495;51.808;7.478;2023-12-04T07:32:36;5.03;;;3.10;;
12852;SDS011;6495;51.808;7.478;2023-12-04T07:35:05;4.60;;;2.27;;
12852;SDS011;6495;51.808;7.478;2023-12-04T07:37:34;3.87;;;2.60;;
12852;SDS011;6495;51.808;7.478;2023-12-04T07:40:03;4.60;;;2.50;;
12852;SDS011;6495;51.808;7.478;2023-12-04T07:42:36;4.37;;;2.23;;
12852;SDS011;6495;51.808;7.478;2023-12-04T07:45:05;5.77;;;2.40;;
12852;SDS011;6495;51.808;7.478;2023-12-04T07:47:36;3.23;;;2.50;;
12852;SDS011;6495;51.808;7.478;2023-12-04T07:50:05;5.20;;;2.60;;
12852;SDS011;6495;51.808;7.478;2023-12-04T07:52:35;2.83;;;2.33;;
12852;SDS011;6495;51.808;7.478;2023-12-04T07:55:03;4.07;;;2.53;;
12852;SDS011;6495;51.808;7.478;2023-12-04T07:57:32;4.50;;;2.33;;
12852;SDS011;6495;51.808;7.478;2023-12-04T08:00:02;5.83;;;2.30;;
12852;SDS011;6495;51.808;7.478;2023-12-04T08:02:32;5.67;;;2.70;;
12852;SDS011;6495;51.808;7.478;2023-12-04T08:05:01;4.57;;;2.37;;
12852;SDS011;6495;51.808;7.478;2023-12-04T08:07:29;4.23;;;2.30;;
12852;SDS011;6495;51.808;7.478;2023-12-04T08:09:58;4.03;;;2.67;;
12852;SDS011;6495;51.808;7.478;2023-12-04T08:12:26;2.83;;;2.10;;
12852;SDS011;6495;51.808;7.478;2023-12-04T08:14:54;3.93;;;2.70;;
12852;SDS011;6495;51.808;7.478;2023-12-04T08:17:24;3.83;;;2.37;;
12852;SDS011;6495;51.808;7.478;2023-12-04T08:19:52;8.53;;;2.90;;
12852;SDS011;6495;51.808;7.478;2023-12-04T08:22:21;5.00;;;2.20;;
12852;SDS011;6495;51.808;7.478;2023-12-04T08:24:49;4.23;;;2.60;;
12852;SDS011;6495;51.808;7.478;2023-12-04T08:27:17;3.23;;;2.20;;
12852;SDS011;6495;51.808;7.478;2023-12-04T08:29:46;3.17;;;2.00;;
12852;SDS011;6495;51.808;7.478;2023-12-04T08:32:14;4.70;;;2.50;;
12852;SDS011;6495;51.808;7.478;2023-12-04T08:34:44;5.37;;;2.47;;
12852;SDS011;6495;51.808;7.478;2023-12-04T08:37:12;3.27;;;2.40;;
12852;SDS011;6495;51.808;7.478;2023-12-04T08:39:40;3.93;;;2.50;;
12852;SDS011;6495;51.808;7.478;2023-12-04T08:42:09;3.80;;;2.20;;
12852;SDS011;6495;51.808;7.478;2023-12-04T08:44:46;5.40;;;2.53;;
12852;SDS011;6495;51.808;7.478;2023-12-04T08:47:15;4.33;;;2.10;;
12852;SDS011;6495;51.808;7.478;2023-12-04T08:49:44;3.00;;;2.17;;
12852;SDS011;6495;51.808;7.478;2023-12-04T08:52:15;3.93;;;2.37;;
12852;SDS011;6495;51.808;7.478;2023-12-04T08:54:43;3.17;;;2.00;;
12852;SDS011;6495;51.808;7.478;2023-12-04T08:57:11;4.13;;;2.47;;
12852;SDS011;6495;51.808;7.478;2023-12-04T08:59:40;4.10;;;2.23;;
12852;SDS011;6495;51.808;7.478;2023-12-04T09:02:09;4.50;;;2.30;;
12852;SDS011;6495;51.808;7.478;2023-12-04T09:04:40;6.43;;;2.80;;
12852;SDS011;6495;51.808;7.478;2023-12-04T09:07:10;3.10;;;2.40;;
12852;SDS011;6495;51.808;7.478;2023-12-04T09:09:59;3.80;;;2.20;;
12852;SDS011;6495;51.808;7.478;2023-12-04T09:12:36;3.43;;;2.13;;
12852;SDS011;6495;51.808;7.478;2023-12-04T09:15:04;3.07;;;2.30;;
12852;SDS011;6495;51.808;7.478;2023-12-04T09:17:35;4.63;;;2.40;;
12852;SDS011;6495;51.808;7.478;2023-12-04T09:20:05;2.93;;;2.20;;
12852;SDS011;6495;51.808;7.478;2023-12-04T09:22:36;3.37;;;2.10;;
12852;SDS011;6495;51.808;7.478;2023-12-04T09:25:18;3.77;;;2.30;;
12852;SDS011;6495;51.808;7.478;2023-12-04T09:27:46;3.73;;;2.37;;
12852;SDS011;6495;51.808;7.478;2023-12-04T09:30:14;4.87;;;2.33;;
12852;SDS011;6495;51.808;7.478;2023-12-04T09:32:43;3.90;;;2.20;;
12852;SDS011;6495;51.808;7.478;2023-12-04T09:35:12;4.67;;;2.50;;
12852;SDS011;6495;51.808;7.478;2023-12-04T09:37:42;4.50;;;2.33;;
12852;SDS011;6495;51.808;7.478;2023-12-04T09:40:12;4.27;;;2.10;;
12852;SDS011;6495;51.808;7.478;2023-12-04T09:42:40;3.57;;;2.20;;
12852;SDS011;6495;51.808;7.478;2023-12-04T09:45:09;3.67;;;2.20;;
12852;SDS011;6495;51.808;7.478;2023-12-04T09:47:39;3.77;;;2.40;;
12852;SDS011;6495;51.808;7.478;2023-12-04T09:50:09;4.77;;;2.60;;
12852;SDS011;6495;51.808;7.478;2023-12-04T09:52:38;5.40;;;2.53;;
12852;SDS011;6495;51.808;7.478;2023-12-04T09:55:08;4.27;;;2.53;;
12852;SDS011;6495;51.808;7.478;2023-12-04T09:57:37;3.87;;;2.00;;
12852;SDS011;6495;51.808;7.478;2023-12-04T10:00:06;4.57;;;2.20;;
12852;SDS011;6495;51.808;7.478;2023-12-04T10:02:38;3.20;;;2.07;;
12852;SDS011;6495;51.808;7.478;2023-12-04T10:05:08;3.57;;;2.37;;
12852;SDS011;6495;51.808;7.478;2023-12-04T10:07:37;2.93;;;2.00;;
12852;SDS011;6495;51.808;7.478;2023-12-04T10:10:06;5.03;;;2.53;;
12852;SDS011;6495;51.808;7.478;2023-12-04T10:12:37;5.50;;;2.60;;
12852;SDS011;6495;51.808;7.478;2023-12-04T10:15:06;2.67;;;2.00;;
12852;SDS011;6495;51.808;7.478;2023-12-04T10:17:38;3.93;;;2.10;;
12852;SDS011;6495;51.808;7.478;2023-12-04T10:20:08;4.07;;;2.40;;
12852;SDS011;6495;51.808;7.478;2023-12-04T10:22:39;3.83;;;2.13;;
12852;SDS011;6495;51.808;7.478;2023-12-04T10:25:22;3.27;;;2.20;;
12852;SDS011;6495;51.808;7.478;2023-12-04T10:27:52;3.73;;;2.17;;
12852;SDS011;6495;51.808;7.478;2023-12-04T10:30:22;3.23;;;2.13;;
12852;SDS011;6495;51.808;7.478;2023-12-04T10:32:53;3.67;;;2.40;;
12852;SDS011;6495;51.808;7.478;2023-12-04T10:35:28;3.67;;;2.50;;
12852;SDS011;6495;51.808;7.478;2023-12-04T10:37:57;4.67;;;2.43;;
12852;SDS011;6495;51.808;7.478;2023-12-04T10:40:29;4.63;;;2.33;;
12852;SDS011;6495;51.808;7.478;2023-12-04T10:43:15;6.03;;;2.30;;
12852;SDS011;6495;51.808;7.478;2023-12-04T10:45:46;4.37;;;2.50;;
12852;SDS011;6495;51.808;7.478;2023-12-04T10:48:17;4.87;;;3.00;;
12852;SDS011;6495;51.808;7.478;2023-12-04T10:50:48;4.80;;;2.50;;
12852;SDS011;6495;51.808;7.478;2023-12-04T10:53:17;4.53;;;2.70;;
12852;SDS011;6495;51.808;7.478;2023-12-04T10:55:46;6.50;;;2.63;;
12852;SDS011;6495;51.808;7.478;2023-12-04T10:58:20;4.60;;;2.77;;
12852;SDS011;6495;51.808;7.478;2023-12-04T11:00:54;3.23;;;2.40;;
12852;SDS011;6495;51.808;7.478;2023-12-04T11:03:31;3.77;;;2.70;;
12852;SDS011;6495;51.808;7.478;2023-12-04T11:06:05;4.37;;;2.67;;
12852;SDS011;6495;51.808;7.478;2023-12-04T11:08:39;3.70;;;2.27;;
12852;SDS011;6495;51.808;7.478;2023-12-04T11:11:12;4.13;;;2.67;;
12852;SDS011;6495;51.808;7.478;2023-12-04T11:13:46;6.03;;;3.50;;
12852;SDS011;6495;51.808;7.478;2023-12-04T11:16:18;4.90;;;2.57;;
12852;SDS011;6495;51.808;7.478;2023-12-04T11:18:55;4.43;;;2.57;;
12852;SDS011;6495;51.808;7.478;2023-12-04T11:21:31;5.77;;;2.40;;
12852;SDS011;6495;51.808;7.478;2023-12-04T11:24:02;4.63;;;2.57;;
12852;SDS011;6495;51.808;7.478;2023-12-04T11:26:34;4.10;;;2.53;;
12852;SDS011;6495;51.808;7.478;2023-12-04T11:29:03;2.97;;;2.07;;
12852;SDS011;6495;51.808;7.478;2023-12-04T11:31:35;5.07;;;2.90;;
12852;SDS011;6495;51.808;7.478;2023-12-04T11:34:04;3.53;;;2.50;;
12852;SDS011;6495;51.808;7.478;2023-12-04T11:36:35;3.87;;;2.57;;
12852;SDS011;6495;51.808;7.478;2023-12-04T11:39:07;3.80;;;2.73;;
12852;SDS011;6495;51.808;7.478;2023-12-04T11:41:39;6.07;;;2.30;;
12852;SDS011;6495;51.808;7.478;2023-12-04T11:44:11;3.40;;;2.70;;
12852;SDS011;6495;51.808;7.478;2023-12-04T11:46:54;4.50;;;2.67;;
12852;SDS011;6495;51.808;7.478;2023-12-04T11:49:26;5.80;;;2.80;;
12852;SDS011;6495;51.808;7.478;2023-12-04T11:51:56;4.17;;;2.67;;
12852;SDS011;6495;51.808;7.478;2023-12-04T11:54:26;5.93;;;2.90;;
12852;SDS011;6495;51.808;7.478;2023-12-04T11:56:59;4.97;;;2.77;;
12852;SDS011;6495;51.808;7.478;2023-12-04T11:59:47;4.80;;;2.87;;
12852;SDS011;6495;51.808;7.478;2023-12-04T12:02:16;2.47;;;1.73;;
12852;SDS011;6495;51.808;7.478;2023-12-04T12:04:45;3.77;;;2.60;;
12852;SDS011;6495;51.808;7.478;2023-12-04T12:07:14;3.67;;;2.20;;
12852;SDS011;6495;51.808;7.478;2023-12-04T12:09:43;6.50;;;2.77;;
12852;SDS011;6495;51.808;7.478;2023-12-04T12:12:15;5.67;;;2.60;;
12852;SDS011;6495;51.808;7.478;2023-12-04T12:14:45;4.27;;;2.70;;
12852;SDS011;6495;51.808;7.478;2023-12-04T12:17:13;4.30;;;2.70;;
12852;SDS011;6495;51.808;7.478;2023-12-04T12:19:41;2.53;;;2.07;;
12852;SDS011;6495;51.808;7.478;2023-12-04T12:22:10;3.80;;;2.10;;
12852;SDS011;6495;51.808;7.478;2023-12-04T12:24:39;5.13;;;2.50;;
12852;SDS011;6495;51.808;7.478;2023-12-04T12:27:07;5.27;;;2.43;;
12852;SDS011;6495;51.808;7.478;2023-12-04T12:29:37;3.83;;;2.27;;
12852;SDS011;6495;51.808;7.478;2023-12-04T12:32:05;2.70;;;2.20;;
12852;SDS011;6495;51.808;7.478;2023-12-04T12:34:33;2.90;;;2.23;;
12852;SDS011;6495;51.808;7.478;2023-12-04T12:37:03;3.20;;;1.93;;
12852;SDS011;6495;51.808;7.478;2023-12-04T12:39:32;3.77;;;2.63;;
12852;SDS011;6495;51.808;7.478;2023-12-04T12:42:01;3.03;;;2.23;;
12852;SDS011;6495;51.808;7.478;2023-12-04T12:44:37;2.80;;;2.00;;
12852;SDS011;6495;51.808;7.478;2023-12-04T12:47:07;4.23;;;2.23;;
12852;SDS011;6495;51.808;7.478;2023-12-04T12:49:35;3.37;;;2.10;;
12852;SDS011;6495;51.808;7.478;2023-12-04T12:52:07;2.53;;;2.20;;
12852;SDS011;6495;51.808;7.478;2023-12-04T12:54:38;3.23;;;2.30;;
12852;SDS011;6495;51.808;7.478;2023-12-04T12:57:08;3.67;;;2.47;;
12852;SDS011;6495;51.808;7.478;2023-12-04T12:59:39;3.53;;;2.50;;
12852;SDS011;6495;51.808;7.478;2023-12-04T13:02:07;4.57;;;2.63;;
12852;SDS011;6495;51.808;7.478;2023-12-04T13:04:37;7.47;;;2.70;;
12852;SDS011;6495;51.808;7.478;2023-12-04T13:07:08;3.13;;;1.80;;
12852;SDS011;6495;51.808;7.478;2023-12-04T13:09:36;5.43;;;3.00;;
12852;SDS011;6495;51.808;7.478;2023-12-04T13:12:05;4.03;;;2.60;;
12852;SDS011;6495;51.808;7.478;2023-12-04T13:14:36;4.27;;;2.87;;
12852;SDS011;6495;51.808;7.478;2023-12-04T13:17:07;4.20;;;2.70;;
12852;SDS011;6495;51.808;7.478;2023-12-04T13:19:36;4.27;;;2.73;;
12852;SDS011;6495;51.808;7.478;2023-12-04T13:22:05;5.63;;;2.97;;
12852;SDS011;6495;51.808;7.478;2023-12-04T13:24:34;5.10;;;3.00;;
12852;SDS011;6495;51.808;7.478;2023-12-04T13:27:02;4.87;;;3.37;;
12852;SDS011;6495;51.808;7.478;2023-12-04T13:29:31;4.57;;;2.53;;
12852;SDS011;6495;51.808;7.478;2023-12-04T13:32:01;4.77;;;3.40;;
12852;SDS011;6495;51.808;7.478;2023-12-04T13:34:31;5.73;;;2.57;;
12852;SDS011;6495;51.808;7.478;2023-12-04T13:36:59;4.40;;;3.17;;
12852;SDS011;6495;51.808;7.478;2023-12-04T13:39:28;5.63;;;3.27;;
12852;SDS011;6495;51.808;7.478;2023-12-04T13:42:14;4.50;;;2.80;;
12852;SDS011;6495;51.808;7.478;2023-12-04T13:45:00;3.40;;;2.47;;
12852;SDS011;6495;51.808;7.478;2023-12-04T13:47:32;5.27;;;3.03;;
12852;SDS011;6495;51.808;7.478;2023-12-04T13:50:01;4.27;;;2.90;;
12852;SDS011;6495;51.808;7.478;2023-12-04T13:52:30;6.30;;;3.13;;
12852;SDS011;6495;51.808;7.478;2023-12-04T13:55:00;4.30;;;3.03;;
12852;SDS011;6495;51.808;7.478;2023-12-04T13:57:37;6.07;;;3.03;;
12852;SDS011;6495;51.808;7.478;2023-12-04T14:00:21;3.40;;;2.70;;
12852;SDS011;6495;51.808;7.478;2023-12-04T14:02:51;5.30;;;2.90;;
12852;SDS011;6495;51.808;7.478;2023-12-04T14:05:26;3.60;;;2.50;;
12852;SDS011;6495;51.808;7.478;2023-12-04T14:07:55;6.20;;;2.87;;
12852;SDS011;6495;51.808;7.478;2023-12-04T14:10:25;5.90;;;3.20;;
12852;SDS011;6495;51.808;7.478;2023-12-04T14:12:54;5.67;;;2.60;;
12852;SDS011;6495;51.808;7.478;2023-12-04T14:15:25;3.60;;;2.40;;
12852;SDS011;6495;51.808;7.478;2023-12-04T14:17:54;2.67;;;2.37;;
12852;SDS011;6495;51.808;7.478;2023-12-04T14:20:23;7.37;;;2.23;;
12852;SDS011;6495;51.808;7.478;2023-12-04T14:22:52;2.63;;;2.03;;
12852;SDS011;6495;51.808;7.478;2023-12-04T14:25:20;3.57;;;2.33;;
12852;SDS011;6495;51.808;7.478;2023-12-04T14:27:50;5.67;;;3.37;;
12852;SDS011;6495;51.808;7.478;2023-12-04T14:30:18;5.03;;;2.60;;
12852;SDS011;6495;51.808;7.478;2023-12-04T14:32:46;5.10;;;2.87;;
12852;SDS011;6495;51.808;7.478;2023-12-04T14:35:16;5.37;;;2.90;;
12852;SDS011;6495;51.808;7.478;2023-12-04T14:37:45;5.23;;;2.63;;
12852;SDS011;6495;51.808;7.478;2023-12-04T14:40:14;3.70;;;2.80;;
12852;SDS011;6495;51.808;7.478;2023-12-04T14:42:43;4.23;;;2.43;;
12852;SDS011;6495;51.808;7.478;2023-12-04T14:45:11;3.57;;;2.13;;
12852;SDS011;6495;51.808;7.478;2023-12-04T14:47:40;4.93;;;2.63;;
12852;SDS011;6495;51.808;7.478;2023-12-04T14:50:09;5.90;;;3.30;;
12852;SDS011;6495;51.808;7.478;2023-12-04T14:52:39;4.33;;;2.53;;
12852;SDS011;6495;51.808;7.478;2023-12-04T14:55:13;4.30;;;2.33;;
12852;SDS011;6495;51.808;7.478;2023-12-04T14:58:14;3.70;;;2.30;;
12852;SDS011;6495;51.808;7.478;2023-12-04T15:01:02;5.20;;;2.70;;
12852;SDS011;6495;51.808;7.478;2023-12-04T15:03:50;4.20;;;2.60;;
12852;SDS011;6495;51.808;7.478;2023-12-04T15:06:55;4.57;;;2.20;;
12852;SDS011;6495;51.808;7.478;2023-12-04T15:09:41;4.93;;;2.97;;
12852;SDS011;6495;51.808;7.478;2023-12-04T15:12:26;4.53;;;2.97;;
12852;SDS011;6495;51.808;7.478;2023-12-04T15:15:07;5.50;;;2.60;;
12852;SDS011;6495;51.808;7.478;2023-12-04T15:17:41;5.67;;;2.83;;
12852;SDS011;6495;51.808;7.478;2023-12-04T15:20:17;3.47;;;2.33;;